Time;durP1;ratioP1;P1;durP2;ratioP2;P2;SDS_P1;SDS_P2;PMS_P1;PMS_P2;Temp;Humidity;BMP_temperature;BMP_pressure;BME280_temperature;BME280_humidity;BME280_pressure;Samples;Min_cycle;Max_cycle;Signal;HPM_P1;HPM_P2
2022/01/23 00:00:49;;;;;;;12.10;8.50;;;;;;;3.84;100.00;99841.59;5073757;28;20219;-69
2022/01/23 00:03:18;;;;;;;12.63;8.73;;;;;;;3.82;100.00;99832.94;5073674;28;20265;-69
2022/01/23 00:05:47;;;;;;;11.30;7.87;;;;;;;3.83;100.00;99834.66;5073046;28;20267;-68
2022/01/23 00:08:15;;;;;;;11.63;8.13;;;;;;;3.80;100.00;99829.47;5066319;28;20239;-68
2022/01/23 00:10:42;;;;;;;11.77;8.27;;;;;;;3.79;100.00;99829.50;5073387;28;20218;-69
2022/01/23 00:13:14;;;;;;;13.63;8.73;;;;;;;3.74;100.00;99829.56;5073306;28;20211;-69
2022/01/23 00:18:28;;;;;;;12.57;8.60;;;;;;;3.72;100.00;99831.34;5073192;28;20219;-69
2022/01/23 00:20:55;;;;;;;12.63;8.30;;;;;;;3.72;100.00;99831.34;5073091;28;20226;-69
2022/01/23 00:23:31;;;;;;;13.87;8.73;;;;;;;3.70;100.00;99830.50;5073379;28;20220;-69
2022/01/23 00:31:30;;;;;;;12.03;8.50;;;;;;;3.74;100.00;99840.00;5073134;28;20231;-69
2022/01/23 00:33:59;;;;;;;13.93;8.40;;;;;;;3.77;100.00;99831.25;5071678;28;20212;-68
2022/01/23 00:36:27;;;;;;;11.40;8.10;;;;;;;3.84;100.00;99835.53;5064453;28;20649;-69
2022/01/23 00:38:54;;;;;;;11.43;8.00;;;;;;;3.76;100.00;99833.03;5073088;28;20219;-68
2022/01/23 00:41:21;;;;;;;11.33;8.17;;;;;;;3.77;100.00;99834.75;5073105;28;20651;-69
2022/01/23 00:43:49;;;;;;;13.90;8.87;;;;;;;3.76;100.00;99833.03;5073197;28;20215;-69
2022/01/23 00:46:29;;;;;;;11.37;7.83;;;;;;;3.80;100.00;99834.69;5073072;28;20292;-69
2022/01/23 00:51:42;;;;;;;11.63;7.83;;;;;;;3.78;100.00;99831.25;5072631;28;20214;-69
2022/01/23 00:54:11;;;;;;;11.30;7.93;;;;;;;3.78;100.00;99826.00;5073055;28;20220;-69
2022/01/23 00:56:38;;;;;;;13.27;9.03;;;;;;;3.76;100.00;99817.34;5072751;28;20661;-69
2022/01/23 00:59:05;;;;;;;12.60;8.80;;;;;;;3.76;100.00;99827.78;5072915;28;20218;-69
2022/01/23 01:01:32;;;;;;;13.60;8.27;;;;;;;3.77;100.00;99831.25;5071368;28;20211;-69
2022/01/23 01:04:00;;;;;;;13.00;8.53;;;;;;;3.83;100.00;99839.00;5072691;28;20211;-69
2022/01/23 01:06:27;;;;;;;12.10;8.50;;;;;;;3.79;100.00;99832.97;5072668;28;20251;-69
2022/01/23 01:09:00;;;;;;;13.50;8.97;;;;;;;3.80;100.00;99836.47;5072880;28;20211;-69
2022/01/23 01:11:54;;;;;;;14.13;8.97;;;;;;;3.83;100.00;99829.44;5074164;28;20214;-69
2022/01/23 01:17:10;;;;;;;11.73;8.43;;;;;;;3.75;100.00;99828.69;5071621;28;20226;-69
2022/01/23 01:30:40;;;;;;;12.10;8.60;;;;;;;3.65;100.00;99823.59;5069243;28;20254;-69
2022/01/23 01:33:18;;;;;;;13.63;9.43;;;;;;;3.66;100.00;99820.13;5076500;28;20285;-69
2022/01/23 01:35:52;;;;;;;12.70;9.00;;;;;;;3.69;100.00;99826.16;5076371;28;20302;-68
2022/01/23 01:38:19;;;;;;;14.40;9.60;;;;;;;3.70;100.00;99833.13;5076494;28;20313;-69
2022/01/23 01:40:45;;;;;;;13.57;9.00;;;;;;;3.73;100.00;99833.06;5076472;28;20216;-68
2022/01/23 01:43:12;;;;;;;13.93;9.73;;;;;;;3.74;100.00;99839.16;5076236;28;20216;-69
2022/01/23 01:45:41;;;;;;;14.00;9.73;;;;;;;3.74;100.00;99833.94;5076441;28;20216;-69
2022/01/23 01:48:07;;;;;;;14.70;9.70;;;;;;;3.75;100.00;99839.16;5076092;28;20246;-69
2022/01/23 01:50:35;;;;;;;15.33;10.03;;;;;;;3.74;100.00;99829.56;5075962;28;20216;-68
2022/01/23 01:53:03;;;;;;;14.60;9.67;;;;;;;3.72;100.00;99831.34;5074516;28;20223;-68
2022/01/23 01:55:39;;;;;;;14.30;9.77;;;;;;;3.69;100.00;99838.38;5075978;28;20216;-69
2022/01/23 01:58:06;;;;;;;14.00;9.77;;;;;;;3.71;100.00;99840.06;5068401;28;20215;-69
2022/01/23 02:00:46;;;;;;;14.53;9.33;;;;;;;3.75;100.00;99841.75;5071491;28;20216;-69
2022/01/23 02:08:20;;;;;;;14.57;9.50;;;;;;;3.76;100.00;99833.03;5072332;28;20688;-69
2022/01/23 02:08:57;;;;;;;18.10;10.97;;;;;;;3.78;100.00;99828.63;5070622;28;20330;-69
2022/01/23 02:11:40;;;;;;;16.00;10.33;;;;;;;3.80;100.00;99832.06;5072792;28;20236;-69
2022/01/23 02:14:23;;;;;;;15.93;10.37;;;;;;;3.80;100.00;99821.59;5070860;28;20217;-69
2022/01/23 02:17:13;;;;;;;15.87;10.67;;;;;;;3.80;100.00;99824.22;5067981;28;20212;-69
2022/01/23 02:22:48;;;;;;;17.73;12.13;;;;;;;3.78;100.00;99815.56;5074421;28;20262;-69
2022/01/23 02:25:40;;;;;;;22.27;14.27;;;;;;;3.74;100.00;99819.09;5075624;28;20326;-69
2022/01/23 02:52:54;;;;;;;24.13;14.33;;;;;;;3.70;100.00;99778.22;5074774;28;20257;-68
2022/01/23 02:55:25;;;;;;;23.73;13.97;;;;;;;3.67;100.00;99775.63;5074822;28;20238;-69
2022/01/23 02:57:55;;;;;;;25.10;14.13;;;;;;;3.63;100.00;99779.19;5074695;28;20262;-68
2022/01/23 03:00:30;;;;;;;21.87;14.20;;;;;;;3.66;100.00;99789.59;5074969;28;20216;-70
2022/01/23 03:03:03;;;;;;;20.10;12.70;;;;;;;3.68;100.00;99787.81;5074742;28;20211;-68
2022/01/23 03:05:37;;;;;;;20.83;12.73;;;;;;;3.69;100.00;99794.78;5074617;28;20265;-68
2022/01/23 03:08:18;;;;;;;21.23;13.30;;;;;;;3.69;100.00;99800.03;5074563;28;20286;-69
2022/01/23 03:10:58;;;;;;;22.30;14.07;;;;;;;3.67;100.00;99796.53;5072778;28;20212;-69
2022/01/23 03:13:44;;;;;;;22.13;13.90;;;;;;;3.64;100.00;99795.72;5074443;28;20208;-69
2022/01/23 03:16:27;;;;;;;24.13;14.53;;;;;;;3.60;100.00;99805.38;5072534;28;20223;-69
2022/01/23 03:24:37;;;;;;;23.30;14.23;;;;;;;3.56;100.00;99829.81;5074096;28;20242;-69
2022/01/23 03:27:27;;;;;;;23.60;14.07;;;;;;;3.66;100.00;99831.44;5074194;28;20274;-69
2022/01/23 03:29:57;;;;;;;23.83;14.30;;;;;;;3.59;100.00;99829.78;5074296;28;20259;-69
2022/01/23 03:32:29;;;;;;;25.07;14.60;;;;;;;3.57;100.00;99818.50;5070800;28;20259;-68
2022/01/23 03:34:56;;;;;;;21.47;13.20;;;;;;;3.51;100.00;99825.56;5072788;28;20218;-68
2022/01/23 03:37:23;;;;;;;21.23;13.33;;;;;;;3.47;100.00;99832.59;5071434;28;20215;-68
2022/01/23 03:39:49;;;;;;;22.43;13.60;;;;;;;3.46;100.00;99833.47;5072454;28;20222;-69
2022/01/23 03:42:17;;;;;;;20.07;13.40;;;;;;;3.48;100.00;99831.69;5066550;28;20215;-68
2022/01/23 03:44:57;;;;;;;24.67;14.27;;;;;;;3.44;100.00;99824.81;5065260;28;20216;-69
2022/01/23 03:47:35;;;;;;;23.73;14.57;;;;;;;3.48;100.00;99826.47;5065449;28;20240;-69
2022/01/23 03:50:01;;;;;;;24.33;15.10;;;;;;;3.52;100.00;99822.06;5073084;28;20703;-69
2022/01/23 03:52:27;;;;;;;23.57;14.00;;;;;;;3.54;100.00;99822.91;5073871;28;20215;-68
2022/01/23 03:54:54;;;;;;;21.97;14.73;;;;;;;3.52;100.00;99825.53;5073517;28;20219;-68
2022/01/23 03:57:22;;;;;;;24.33;15.33;;;;;;;3.56;100.00;99834.22;5073879;28;20257;-69
2022/01/23 03:59:49;;;;;;;22.17;14.43;;;;;;;3.56;100.00;99845.50;5073729;28;20212;-69
2022/01/23 04:02:16;;;;;;;23.97;14.93;;;;;;;3.52;100.00;99843.84;5071676;28;20208;-68
2022/01/23 04:04:42;;;;;;;24.43;14.10;;;;;;;3.54;100.00;99847.28;5073542;28;20269;-69
2022/01/23 04:07:13;;;;;;;24.27;14.80;;;;;;;3.51;100.00;99839.50;5073577;28;20243;-68
2022/01/23 04:09:40;;;;;;;24.03;14.83;;;;;;;3.54;100.00;99831.59;5073276;28;20220;-69
2022/01/23 04:12:10;;;;;;;23.20;14.00;;;;;;;3.53;100.00;99827.28;5073118;28;20242;-68
2022/01/23 04:14:44;;;;;;;22.03;13.90;;;;;;;3.52;100.00;99822.94;5070799;28;20215;-69
2022/01/23 04:20:28;;;;;;;25.53;15.10;;;;;;;3.52;100.00;99833.38;5069761;28;20642;-69
2022/01/23 04:34:12;;;;;;;23.27;14.50;;;;;;;3.44;100.00;99819.56;5047999;28;20254;-68
2022/01/23 04:48:48;;;;;;;24.40;14.50;;;;;;;3.44;100.00;99814.34;5072255;28;20628;-68
2022/01/23 05:02:03;;;;;;;25.23;15.43;;;;;;;3.54;100.00;99820.31;5070585;28;20253;-68
2022/01/23 05:04:33;;;;;;;24.60;15.20;;;;;;;3.53;100.00;99813.31;5072543;28;20215;-69
2022/01/23 05:07:02;;;;;;;23.80;15.07;;;;;;;3.52;100.00;99809.88;5072780;28;20245;-69
2022/01/23 05:09:30;;;;;;;24.90;16.23;;;;;;;3.56;100.00;99832.44;5072764;28;20242;-69
2022/01/23 05:11:58;;;;;;;26.20;16.20;;;;;;;3.56;100.00;99834.22;5072791;28;20204;-69
2022/01/23 05:14:31;;;;;;;25.40;15.73;;;;;;;3.56;100.00;99835.06;5072844;28;20219;-69
2022/01/23 05:16:58;;;;;;;27.97;16.57;;;;;;;3.56;100.00;99840.28;5072511;28;20231;-69
2022/01/23 05:19:25;;;;;;;23.63;15.07;;;;;;;3.61;100.00;99843.69;5072739;28;20212;-68
2022/01/23 05:22:16;;;;;;;24.80;15.70;;;;;;;3.63;100.00;99841.06;5070867;28;20719;-69
2022/01/23 05:24:48;;;;;;;26.93;16.13;;;;;;;3.62;100.00;99837.56;5067086;28;20239;-69
2022/01/23 05:27:15;;;;;;;25.70;16.63;;;;;;;3.65;100.00;99834.94;5072305;28;20251;-69
2022/01/23 05:29:41;;;;;;;25.33;15.53;;;;;;;3.65;100.00;99848.00;5072773;28;20585;-69
2022/01/23 05:32:11;;;;;;;26.87;16.57;;;;;;;3.68;100.00;99847.94;5072481;28;20216;-69
2022/01/23 05:34:38;;;;;;;31.20;17.33;;;;;;;3.70;100.00;99837.47;5072465;28;20221;-68
2022/01/23 05:37:06;;;;;;;24.90;16.23;;;;;;;3.68;100.00;99837.47;5072246;28;20221;-69
2022/01/23 05:39:33;;;;;;;25.27;16.10;;;;;;;3.69;100.00;99836.63;5072479;28;20220;-69
2022/01/23 05:42:06;;;;;;;28.80;16.63;;;;;;;3.72;100.00;99841.78;5072137;28;20215;-69
2022/01/23 05:44:33;;;;;;;24.30;14.97;;;;;;;3.68;100.00;99827.03;5072441;28;20219;-69
2022/01/23 05:46:59;;;;;;;25.20;15.77;;;;;;;3.67;100.00;99825.31;5070646;28;20207;-69
2022/01/23 05:49:26;;;;;;;26.70;17.00;;;;;;;3.69;100.00;99836.63;5072478;28;20222;-69
2022/01/23 05:51:53;;;;;;;24.07;15.60;;;;;;;3.70;100.00;99830.50;5072058;28;20595;-69
2022/01/23 05:54:21;;;;;;;24.60;16.23;;;;;;;3.72;100.00;99831.34;5072413;28;20207;-69
2022/01/23 05:56:47;;;;;;;26.50;15.43;;;;;;;3.70;100.00;99838.34;5072600;28;20223;-68
2022/01/23 05:59:14;;;;;;;25.00;16.00;;;;;;;3.67;100.00;99848.84;5075868;28;20235;-68
2022/01/23 06:01:40;;;;;;;26.73;17.10;;;;;;;3.65;100.00;99844.50;5076098;28;20207;-68
2022/01/23 06:04:07;;;;;;;24.87;15.93;;;;;;;3.65;100.00;99850.63;5075854;28;20212;-68
2022/01/23 06:06:33;;;;;;;26.67;16.50;;;;;;;3.67;100.00;99853.22;5075969;28;20239;-68
2022/01/23 06:09:00;;;;;;;26.80;16.60;;;;;;;3.66;100.00;99860.19;5068818;28;20231;-69
2022/01/23 06:11:27;;;;;;;24.70;16.00;;;;;;;3.68;100.00;99858.41;5075811;28;20204;-69
2022/01/23 06:13:54;;;;;;;26.00;16.67;;;;;;;3.67;100.00;99869.75;5073891;28;20220;-68
2022/01/23 06:16:20;;;;;;;30.97;17.83;;;;;;;3.72;100.00;99875.78;5075880;28;20215;-69
2022/01/23 06:18:47;;;;;;;26.50;17.13;;;;;;;3.69;100.00;99872.34;5075357;28;20216;-69
2022/01/23 06:21:19;;;;;;;27.83;15.67;;;;;;;3.67;100.00;99874.97;5075453;28;20227;-68
2022/01/23 06:23:47;;;;;;;24.60;15.43;;;;;;;3.61;100.00;99867.22;5075493;28;20301;-69
2022/01/23 06:26:14;;;;;;;22.97;15.00;;;;;;;3.57;100.00;99867.28;5075553;28;20234;-69
2022/01/23 06:28:48;;;;;;;24.10;15.07;;;;;;;3.58;100.00;99875.13;5075225;28;20250;-69
2022/01/23 06:31:14;;;;;;;24.17;14.83;;;;;;;3.56;100.00;99869.03;5075467;28;20216;-69
2022/01/23 06:33:41;;;;;;;24.70;15.77;;;;;;;3.54;100.00;99872.59;5075395;28;20215;-69
2022/01/23 06:36:07;;;;;;;24.97;15.23;;;;;;;3.54;100.00;99873.44;5074934;28;20212;-69
2022/01/23 06:38:35;;;;;;;22.90;14.77;;;;;;;3.54;100.00;99876.03;5073347;28;20211;-69
2022/01/23 06:41:02;;;;;;;26.07;16.03;;;;;;;3.50;100.00;99881.34;5075284;28;20211;-68
2022/01/23 06:43:28;;;;;;;26.13;15.77;;;;;;;3.48;100.00;99877.91;5075153;28;20208;-68
2022/01/23 06:45:56;;;;;;;27.30;15.53;;;;;;;3.46;100.00;99875.28;5074747;28;20677;-68
2022/01/23 06:48:23;;;;;;;25.17;15.57;;;;;;;3.48;100.00;99883.97;5075162;28;20239;-68
2022/01/23 06:50:50;;;;;;;23.10;15.20;;;;;;;3.50;100.00;99889.19;5075152;28;20220;-69
2022/01/23 06:53:16;;;;;;;27.83;16.00;;;;;;;3.56;100.00;99882.09;5075143;28;20581;-69
2022/01/23 06:55:43;;;;;;;24.53;15.73;;;;;;;3.56;100.00;99886.50;5074801;28;20591;-69
2022/01/23 06:58:09;;;;;;;25.57;15.43;;;;;;;3.56;100.00;99889.09;5068002;28;20211;-68
2022/01/23 07:00:36;;;;;;;29.00;16.37;;;;;;;3.60;100.00;99894.25;5074732;28;20207;-69
2022/01/23 07:03:03;;;;;;;25.53;15.53;;;;;;;3.57;100.00;99891.69;5074655;28;20215;-69
2022/01/23 07:05:30;;;;;;;27.53;16.70;;;;;;;3.55;100.00;99895.22;5072833;28;20220;-69
2022/01/23 07:07:56;;;;;;;26.57;16.40;;;;;;;3.56;100.00;99903.03;5074359;28;20723;-69
2022/01/23 07:10:24;;;;;;;29.57;17.57;;;;;;;3.62;100.00;99905.56;5073918;28;20223;-69
2022/01/23 07:12:51;;;;;;;32.37;17.83;;;;;;;3.64;100.00;99911.66;5074812;28;20235;-69
2022/01/23 07:15:17;;;;;;;24.93;15.90;;;;;;;3.62;100.00;99904.72;5074350;28;20658;-69
2022/01/23 07:17:44;;;;;;;26.17;16.33;;;;;;;3.60;100.00;99909.94;5074529;28;20227;-69
2022/01/23 07:20:12;;;;;;;26.93;16.53;;;;;;;3.58;100.00;99916.97;5074505;28;20211;-69
2022/01/23 07:22:39;;;;;;;28.60;16.20;;;;;;;3.55;100.00;99914.38;5074772;28;20578;-69
2022/01/23 07:25:06;;;;;;;29.07;16.17;;;;;;;3.55;100.00;99921.38;5074042;28;20253;-69
2022/01/23 07:27:37;;;;;;;26.07;15.43;;;;;;;3.56;100.00;99926.53;5074164;28;20222;-69
2022/01/23 07:30:06;;;;;;;27.17;15.60;;;;;;;3.56;100.00;99923.94;5073482;28;20222;-68
2022/01/23 07:32:33;;;;;;;25.47;15.37;;;;;;;3.56;100.00;99931.78;5073412;28;20216;-69
2022/01/23 07:34:59;;;;;;;26.87;16.00;;;;;;;3.57;100.00;99936.16;5074204;28;20211;-69
2022/01/23 07:37:27;;;;;;;25.10;16.37;;;;;;;3.56;100.00;99931.78;5074167;28;20230;-68
2022/01/23 07:39:53;;;;;;;26.63;16.17;;;;;;;3.58;100.00;99927.41;5074067;28;20218;-69
2022/01/23 07:42:20;;;;;;;26.93;15.20;;;;;;;3.56;100.00;99934.41;5073704;28;20210;-68
2022/01/23 07:44:46;;;;;;;27.20;15.90;;;;;;;3.55;100.00;99937.91;5073848;28;20211;-68
2022/01/23 07:47:13;;;;;;;28.63;16.43;;;;;;;3.59;100.00;99939.59;5073937;28;20214;-68
2022/01/23 07:49:39;;;;;;;26.77;16.20;;;;;;;3.62;100.00;99944.78;5073940;28;20239;-68
2022/01/23 07:52:07;;;;;;;27.13;16.53;;;;;;;3.65;100.00;99942.13;5073603;28;20699;-68
2022/01/23 07:54:34;;;;;;;27.87;16.67;;;;;;;3.67;100.00;99940.34;5073753;28;20586;-69
2022/01/23 07:57:01;;;;;;;25.87;14.93;;;;;;;3.66;100.00;99941.25;5071793;28;20257;-68
2022/01/23 07:59:27;;;;;;;26.77;15.27;;;;;;;3.70;100.00;99950.78;5073677;28;20222;-68
2022/01/23 08:01:54;;;;;;;27.87;15.90;;;;;;;3.68;100.00;99954.31;5073281;28;20693;-69
2022/01/23 08:04:20;;;;;;;29.23;14.77;;;;;;;3.68;100.00;99955.16;5073408;28;20238;-69
2022/01/23 08:06:54;;;;;;;25.57;15.63;;;;;;;3.69;100.00;99954.28;5073567;28;20219;-68
2022/01/23 08:09:20;;;;;;;25.40;15.53;;;;;;;3.74;100.00;99960.31;5073204;28;20242;-68
2022/01/23 08:11:48;;;;;;;23.50;14.93;;;;;;;3.79;100.00;99961.09;5066984;28;20200;-69
2022/01/23 08:14:14;;;;;;;22.40;14.90;;;;;;;3.86;100.00;99960.13;5073655;28;20583;-69
2022/01/23 08:16:41;;;;;;;24.23;14.70;;;;;;;3.92;100.00;99953.97;5073169;28;20685;-69
2022/01/23 08:19:07;;;;;;;24.70;14.70;;;;;;;3.98;100.00;99953.91;5073118;28;20218;-69
2022/01/23 08:21:34;;;;;;;24.47;15.07;;;;;;;4.02;100.00;99963.41;5072148;28;20693;-69
2022/01/23 08:24:00;;;;;;;27.87;15.90;;;;;;;4.05;100.00;99956.41;5071543;28;20223;-69
2022/01/23 08:26:27;;;;;;;25.67;15.80;;;;;;;4.10;100.00;99961.56;5073390;28;20225;-68
2022/01/23 08:28:55;;;;;;;24.93;15.40;;;;;;;4.18;100.00;99960.56;5073145;28;20247;-68
2022/01/23 08:31:21;;;;;;;26.87;16.30;;;;;;;4.24;100.00;99957.84;5073194;28;20209;-69
2022/01/23 08:33:48;;;;;;;24.77;14.83;;;;;;;4.30;100.00;99959.50;5073083;28;20211;-68
2022/01/23 08:36:15;;;;;;;23.97;16.43;;;;;;;4.35;100.00;99966.38;5070616;28;20687;-69
2022/01/23 08:38:43;;;;;;;23.47;15.23;;;;;;;4.44;100.00;99971.50;5071113;28;20580;-69
2022/01/23 08:43:54;;;;;;;25.30;15.83;;;;;;;4.58;100.00;99974.75;5069587;28;20223;-68
2022/01/23 08:46:21;;;;;;;24.47;16.30;;;;;;;4.62;100.00;99975.56;5065903;28;20673;-69
2022/01/23 08:48:47;;;;;;;22.93;15.17;;;;;;;4.73;100.00;99965.78;5070987;28;20711;-69
2022/01/23 08:51:14;;;;;;;24.93;15.77;;;;;;;4.78;100.00;99970.06;5073117;28;20218;-68
2022/01/23 08:53:41;;;;;;;24.37;16.10;;;;;;;4.83;100.00;99980.47;5072952;28;20219;-69
2022/01/23 08:56:07;;;;;;;24.63;15.27;;;;;;;4.84;100.00;99977.78;5072556;28;20212;-69
2022/01/23 08:58:34;;;;;;;22.60;14.63;;;;;;;4.90;100.00;99967.19;5072684;28;20220;-69
2022/01/23 09:01:02;;;;;;;24.50;15.33;;;;;;;4.96;100.00;99959.22;5072843;28;20221;-69
2022/01/23 09:03:28;;;;;;;26.37;16.93;;;;;;;5.05;100.00;99959.09;5072731;28;20591;-69
2022/01/23 09:05:55;;;;;;;25.73;15.13;;;;;;;5.11;100.00;99956.34;5072632;28;20245;-68
2022/01/23 09:08:21;;;;;;;25.00;15.70;;;;;;;5.18;100.00;99952.72;5072511;28;20236;-69
2022/01/23 09:10:54;;;;;;;26.43;15.60;;;;;;;5.27;100.00;99946.44;5072535;28;20622;-69
2022/01/23 09:13:32;;;;;;;23.87;14.63;;;;;;;5.30;100.00;99951.59;5072222;28;20212;-69
2022/01/23 09:15:58;;;;;;;25.20;16.53;;;;;;;5.38;100.00;99949.72;5065455;28;20634;-69
2022/01/23 09:18:26;;;;;;;25.77;15.77;;;;;;;5.44;100.00;99958.31;5072572;28;20216;-69
2022/01/23 09:20:53;;;;;;;23.43;15.60;;;;;;;5.49;100.00;99951.22;5071373;28;20200;-69
2022/01/23 09:23:19;;;;;;;23.13;14.93;;;;;;;5.57;100.00;99946.66;5071017;28;20231;-69
2022/01/23 09:25:46;;;;;;;24.87;15.70;;;;;;;5.66;100.00;99950.88;5071169;28;20498;-69
2022/01/23 09:28:14;;;;;;;23.67;14.63;;;;;;;5.74;100.00;99955.06;5071232;28;20587;-69
2022/01/23 09:30:43;;;;;;;25.27;15.80;;;;;;;5.86;100.00;99952.22;5071099;28;20615;-69
2022/01/23 09:33:09;;;;;;;23.37;14.80;;;;;;;5.97;100.00;99947.59;5073675;28;20217;-69
2022/01/23 09:35:37;;;;;;;24.63;15.07;;;;;;;6.04;100.00;99943.94;5074920;28;20223;-68
2022/01/23 09:38:03;;;;;;;23.77;15.40;;;;;;;6.15;100.00;99949.81;5072735;28;20217;-68
2022/01/23 09:40:30;;;;;;;24.37;16.10;;;;;;;6.22;100.00;99948.75;5072969;28;20224;-68
2022/01/23 09:43:02;;;;;;;24.87;16.33;;;;;;;6.28;100.00;99939.91;5072528;28;20233;-68
2022/01/23 09:45:31;;;;;;;23.57;15.20;;;;;;;6.33;100.00;99946.75;5068472;28;20224;-68
2022/01/23 09:48:02;;;;;;;25.73;15.40;;;;;;;6.38;100.00;99954.53;5063886;28;20230;-67
2022/01/23 09:50:30;;;;;;;22.33;15.40;;;;;;;6.44;100.00;99952.63;5066051;28;20264;-69
2022/01/23 09:52:58;;;;;;;21.27;14.37;;;;;;;6.51;100.00;99946.31;5065314;28;20221;-68
2022/01/23 09:55:27;;;;;;;19.43;13.77;;;;;;;6.50;100.00;99947.22;5069803;28;20209;-68
2022/01/23 09:57:54;;;;;;;19.10;12.67;;;;;;;6.51;100.00;99946.31;5074365;28;20229;-68
2022/01/23 10:00:24;;;;;;;19.03;12.37;;;;;;;6.53;100.00;99946.28;5074430;28;20216;-68
2022/01/23 10:02:51;;;;;;;18.07;12.50;;;;;;;6.54;100.00;99954.13;5074653;28;20420;-68
2022/01/23 10:05:18;;;;;;;18.47;12.63;;;;;;;6.52;100.00;99948.03;5074791;28;20714;-68
2022/01/23 10:07:45;;;;;;;20.60;12.93;;;;;;;6.51;100.00;99954.19;5072682;28;20702;-68
2022/01/23 10:10:18;;;;;;;19.60;13.37;;;;;;;6.49;100.00;99952.50;5074303;28;20241;-68
2022/01/23 10:12:50;;;;;;;17.73;12.07;;;;;;;6.45;100.00;99943.84;5074223;28;20242;-68
2022/01/23 10:15:17;;;;;;;19.80;12.93;;;;;;;6.45;100.00;99946.47;5074531;28;20218;-68
2022/01/23 10:17:43;;;;;;;18.33;13.10;;;;;;;6.49;100.00;99948.13;5074454;28;20217;-68
2022/01/23 10:20:12;;;;;;;21.53;14.20;;;;;;;6.48;100.00;99950.78;5074296;28;20297;-68
2022/01/23 10:22:41;;;;;;;19.73;13.63;;;;;;;6.52;100.00;99947.16;5073808;28;20218;-68
2022/01/23 10:25:10;;;;;;;21.10;14.10;;;;;;;6.50;100.00;99948.97;5074349;28;20247;-68
2022/01/23 10:27:58;;;;;;;19.40;13.63;;;;;;;6.49;100.00;99949.88;5074211;28;20223;-67
2022/01/23 10:30:27;;;;;;;17.47;12.13;;;;;;;6.49;100.00;99947.25;5066239;28;20330;-68
2022/01/23 10:32:59;;;;;;;16.60;11.77;;;;;;;6.52;100.00;99953.28;5073931;28;20225;-68
2022/01/23 10:35:26;;;;;;;18.50;13.00;;;;;;;6.58;100.00;99952.28;5071284;28;20218;-67
2022/01/23 10:37:54;;;;;;;18.30;12.10;;;;;;;6.65;100.00;99953.88;5072947;28;20683;-68
2022/01/23 10:40:30;;;;;;;17.60;11.93;;;;;;;6.69;100.00;99947.63;5073801;28;20255;-68
2022/01/23 10:48:36;;;;;;;17.97;12.00;;;;;;;6.77;100.00;99949.16;5073623;28;20711;-68
2022/01/23 10:51:22;;;;;;;15.80;10.83;;;;;;;6.82;100.00;99941.16;5073640;28;20219;-68
2022/01/23 10:54:13;;;;;;;18.80;12.37;;;;;;;6.89;100.00;99942.75;5063943;28;20215;-68
2022/01/23 10:56:55;;;;;;;19.80;13.40;;;;;;;6.88;100.00;99939.25;5073605;28;20638;-68
2022/01/23 10:59:24;;;;;;;20.13;13.77;;;;;;;6.84;100.00;99947.25;5072463;28;20580;-67
2022/01/23 11:02:03;;;;;;;19.57;13.77;;;;;;;6.80;100.00;99933.31;5065474;28;20212;-68
2022/01/23 11:04:29;;;;;;;19.33;12.53;;;;;;;6.80;100.00;99938.59;5068022;28;20215;-69
2022/01/23 11:06:58;;;;;;;19.77;12.20;;;;;;;6.90;100.00;99932.16;5072249;28;20229;-68
2022/01/23 11:09:27;;;;;;;18.57;12.43;;;;;;;6.88;100.00;99930.47;5072359;28;20742;-67
2022/01/23 11:12:01;;;;;;;17.33;11.90;;;;;;;6.78;100.00;99929.00;5068978;28;20236;-67
2022/01/23 11:17:24;;;;;;;13.80;10.60;;;;;;;6.77;100.00;99936.03;5063504;28;20241;-66
2022/01/23 11:19:54;;;;;;;14.13;9.93;;;;;;;6.80;100.00;99943.84;5073239;28;20628;-67
2022/01/23 11:22:23;;;;;;;15.30;10.23;;;;;;;6.91;100.00;99936.50;5072785;28;20215;-67
2022/01/23 11:24:50;;;;;;;14.70;10.43;;;;;;;6.97;97.01;99936.34;5073279;28;20245;-67
2022/01/23 11:27:19;;;;;;;13.40;9.33;;;;;;;6.93;96.75;99924.22;5063927;28;20210;-67
2022/01/23 11:29:58;;;;;;;12.87;9.30;;;;;;;6.98;96.28;99931.97;5071511;28;20246;-67
2022/01/23 11:32:27;;;;;;;13.03;9.73;;;;;;;6.98;95.86;99924.09;5066819;28;20218;-67
2022/01/23 11:35:03;;;;;;;12.70;9.43;;;;;;;6.94;97.00;99917.19;5073096;28;20272;-67
2022/01/23 11:37:30;;;;;;;11.00;8.63;;;;;;;6.98;95.71;99921.47;5073026;28;20243;-68
2022/01/23 11:40:03;;;;;;;13.03;9.33;;;;;;;6.96;96.54;99913.59;5072976;28;20225;-67
2022/01/23 11:51:19;;;;;;;12.33;8.93;;;;;;;7.11;94.19;99897.44;5071962;28;20238;-67
2022/01/23 11:53:53;;;;;;;11.37;8.27;;;;;;;7.18;93.05;99898.09;5070059;28;20295;-68
2022/01/23 11:56:48;;;;;;;10.70;8.17;;;;;;;7.17;92.09;99902.53;5067392;28;20221;-67
2022/01/23 11:59:24;;;;;;;11.77;8.00;;;;;;;7.23;91.48;99902.34;5035682;28;20226;-67
2022/01/23 12:02:36;;;;;;;12.77;9.83;;;;;;;7.24;90.99;99904.91;5072053;28;20219;-67
2022/01/23 12:05:24;;;;;;;13.70;9.63;;;;;;;7.15;91.46;99903.47;5070701;28;20309;-67
2022/01/23 12:08:28;;;;;;;12.77;9.37;;;;;;;7.16;92.24;99906.06;5062558;28;20247;-67
2022/01/23 12:17:41;;;;;;;13.50;9.70;;;;;;;7.25;91.81;99895.28;5066362;28;20212;-67
2022/01/23 12:20:09;;;;;;;13.37;9.73;;;;;;;7.40;91.02;99894.81;5068665;28;20302;-67
2022/01/23 12:22:40;;;;;;;15.90;10.27;;;;;;;7.49;90.17;99891.94;5067348;28;20215;-67
2022/01/23 12:25:13;;;;;;;12.03;9.33;;;;;;;7.46;91.02;99889.38;5069175;28;20292;-67
2022/01/23 12:27:40;;;;;;;13.50;9.73;;;;;;;7.56;90.69;99898.75;5072088;28;20212;-67
2022/01/23 12:30:33;;;;;;;12.27;9.23;;;;;;;7.64;88.64;99894.13;5072012;28;20246;-67
2022/01/23 12:33:30;;;;;;;14.40;9.27;;;;;;;7.67;86.77;99888.78;5069229;28;20567;-67
2022/01/23 12:36:08;;;;;;;12.70;9.83;;;;;;;7.61;84.89;99886.31;5072036;28;20224;-67
2022/01/23 12:38:40;;;;;;;12.70;8.47;;;;;;;7.68;85.38;99880.84;5071767;28;20224;-67
2022/01/23 12:41:23;;;;;;;11.50;8.43;;;;;;;7.67;85.00;99879.13;5071896;28;20589;-67
2022/01/23 12:43:52;;;;;;;13.20;8.90;;;;;;;7.71;83.82;99878.09;5071607;28;20250;-67
2022/01/23 12:46:28;;;;;;;9.47;7.13;;;;;;;7.72;83.57;99876.34;5071778;28;20227;-67
2022/01/23 12:48:59;;;;;;;9.57;7.77;;;;;;;7.77;82.52;99864.75;5069939;28;20211;-67
2022/01/23 12:51:41;;;;;;;10.43;7.30;;;;;;;7.77;81.28;99869.19;5071869;28;20261;-67
2022/01/23 12:54:31;;;;;;;9.33;6.80;;;;;;;7.74;80.97;99864.00;5071897;28;20219;-67
2022/01/23 12:57:07;;;;;;;7.40;5.40;;;;;;;7.74;79.37;99869.25;5058684;28;20218;-67
2022/01/23 12:59:35;;;;;;;3.90;3.30;;;;;;;7.77;75.64;99871.81;5071325;28;20218;-67
2022/01/23 13:02:07;;;;;;;4.33;3.77;;;;;;;7.68;75.36;99872.94;5071928;28;20250;-67
2022/01/23 13:04:39;;;;;;;3.00;2.60;;;;;;;7.60;73.02;99874.06;5071330;28;20279;-67
2022/01/23 13:07:15;;;;;;;7.47;5.27;;;;;;;7.46;74.24;99868.34;5072363;28;20299;-67
2022/01/23 13:09:49;;;;;;;5.37;4.20;;;;;;;7.34;76.06;99874.00;5074500;28;20239;-68
2022/01/23 13:12:30;;;;;;;5.20;4.20;;;;;;;7.28;75.56;99875.00;5075490;28;20293;-67
2022/01/23 13:15:13;;;;;;;5.00;3.93;;;;;;;7.19;77.17;99869.16;5074012;28;20218;-67
2022/01/23 13:17:50;;;;;;;5.93;4.10;;;;;;;6.98;76.28;99859.25;5075348;28;20853;-67
2022/01/23 13:31:39;;;;;;;5.67;3.70;;;;;;;6.74;81.18;99853.78;5065770;28;20599;-67
2022/01/23 13:34:21;;;;;;;6.30;4.33;;;;;;;6.60;82.62;99850.66;5075299;28;20241;-67
2022/01/23 13:36:57;;;;;;;5.23;4.10;;;;;;;6.59;82.76;99854.19;5075483;28;20210;-67
2022/01/23 13:39:27;;;;;;;5.03;3.87;;;;;;;6.55;83.41;99848.16;5075240;28;20217;-67
2022/01/23 13:42:04;;;;;;;4.53;3.67;;;;;;;6.54;84.00;99845.56;5073801;28;20222;-67
2022/01/23 13:53:11;;;;;;;6.13;4.50;;;;;;;6.59;83.62;99839.28;5061555;28;20254;-67
2022/01/23 14:01:18;;;;;;;6.03;4.63;;;;;;;6.49;83.57;99837.81;5073363;28;20218;-67
2022/01/23 14:03:46;;;;;;;6.43;4.50;;;;;;;6.45;81.79;99830.91;5074438;28;20214;-67
2022/01/23 14:06:12;;;;;;;4.97;3.83;;;;;;;6.38;81.97;99829.34;5073006;28;20297;-67
2022/01/23 14:08:40;;;;;;;4.43;3.47;;;;;;;6.32;82.85;99826.88;5074831;28;20581;-67